createdAt,value
2018-05-25T00:01:00.014Z,19.24
2018-05-25T00:03:28.841Z,19.20
2018-05-25T00:05:57.698Z,19.16
2018-05-25T00:08:26.546Z,19.16
2018-05-25T00:10:55.504Z,19.39
2018-05-25T00:13:24.341Z,19.23
2018-05-25T00:15:53.191Z,19.20
2018-05-25T00:18:22.034Z,19.17
2018-05-25T00:20:50.875Z,19.18
2018-05-25T00:23:19.729Z,19.16
2018-05-25T00:25:48.571Z,19.15
2018-05-25T00:28:17.546Z,19.20
2018-05-25T00:30:46.376Z,19.16
2018-05-25T00:33:15.240Z,19.13
2018-05-25T00:35:44.073Z,19.11
2018-05-25T00:38:12.917Z,19.12
2018-05-25T00:40:41.764Z,19.11
2018-05-25T00:43:10.642Z,19.10
2018-05-25T00:45:39.474Z,19.16
2018-05-25T00:48:08.331Z,19.20
2018-05-25T00:50:37.194Z,19.18
2018-05-25T00:53:06.028Z,19.46
2018-05-25T00:55:40.989Z,19.27
2018-05-25T00:58:09.831Z,19.29
2018-05-25T01:00:38.679Z,19.25
2018-05-25T01:03:07.506Z,19.29
2018-05-25T01:05:36.351Z,19.26
2018-05-25T01:08:05.201Z,19.29
2018-05-25T01:10:33.994Z,19.26
2018-05-25T01:13:02.852Z,19.20
2018-05-25T01:15:31.695Z,19.20
2018-05-25T01:18:00.564Z,19.18
2018-05-25T01:20:29.390Z,19.11
2018-05-25T01:22:58.283Z,19.12
2018-05-25T01:25:27.115Z,19.11
2018-05-25T01:27:56.018Z,19.05
2018-05-25T01:30:24.862Z,19.03
2018-05-25T01:32:53.724Z,18.98
2018-05-25T01:35:22.571Z,18.96
2018-05-25T01:37:51.402Z,18.93
2018-05-25T01:40:20.266Z,18.90
2018-05-25T01:42:49.120Z,18.90
2018-05-25T01:45:18.106Z,18.86
2018-05-25T01:47:46.961Z,18.79
2018-05-25T01:50:15.814Z,18.75
2018-05-25T01:52:44.655Z,18.69
2018-05-25T01:55:13.480Z,18.65
2018-05-25T01:57:42.333Z,18.59
2018-05-25T02:00:11.164Z,18.56
2018-05-25T02:02:40.011Z,18.54
2018-05-25T02:05:08.859Z,18.49
2018-05-25T02:07:37.702Z,18.47
2018-05-25T02:10:06.551Z,18.38
2018-05-25T02:12:35.363Z,18.35
2018-05-25T02:15:04.228Z,18.34
2018-05-25T02:17:33.043Z,18.37
2018-05-25T02:20:01.906Z,18.37
2018-05-25T02:22:30.723Z,18.31
2018-05-25T02:24:59.599Z,18.25
2018-05-25T02:27:28.457Z,18.22
2018-05-25T02:29:57.338Z,18.18
2018-05-25T02:32:26.182Z,18.13
2018-05-25T02:34:55.074Z,18.16
2018-05-25T02:37:23.860Z,18.14
2018-05-25T02:39:52.706Z,18.06
2018-05-25T02:42:21.534Z,18.01
2018-05-25T02:44:50.393Z,17.99
2018-05-25T02:47:19.215Z,17.93
2018-05-25T02:49:48.067Z,17.91
2018-05-25T02:52:16.892Z,18.14
2018-05-25T02:54:45.758Z,17.88
2018-05-25T02:57:14.604Z,17.85
2018-05-25T02:59:43.464Z,18.13
2018-05-25T03:02:12.304Z,17.84
2018-05-25T03:04:41.158Z,17.87
2018-05-25T03:07:10.029Z,17.87
2018-05-25T03:09:38.893Z,17.81
2018-05-25T03:12:07.727Z,17.71
2018-05-25T03:14:36.590Z,17.63
2018-05-25T03:17:05.446Z,17.55
2018-05-25T03:19:34.277Z,17.57
2018-05-25T03:22:03.099Z,17.55
2018-05-25T03:24:31.980Z,17.50
2018-05-25T03:27:00.832Z,17.42
2018-05-25T03:29:29.665Z,17.38
2018-05-25T03:31:58.560Z,17.36
2018-05-25T03:34:27.411Z,17.37
2018-05-25T03:36:56.291Z,17.34
2018-05-25T03:39:25.131Z,17.32
2018-05-25T03:41:53.997Z,17.28
2018-05-25T03:44:22.859Z,17.30
2018-05-25T03:46:51.707Z,17.26
2018-05-25T03:49:20.553Z,17.22
2018-05-25T03:51:49.434Z,17.19
2018-05-25T03:54:18.243Z,17.16
2018-05-25T03:56:47.067Z,17.14
2018-05-25T04:00:11.958Z,17.13
2018-05-25T04:02:40.752Z,17.11
2018-05-25T04:05:09.603Z,17.34
2018-05-25T04:07:38.510Z,17.14
2018-05-25T04:10:07.382Z,17.14
2018-05-25T04:12:36.236Z,17.12
2018-05-25T04:15:05.074Z,17.06
2018-05-25T04:17:33.905Z,17.00
2018-05-25T04:20:02.773Z,17.00
2018-05-25T04:22:31.612Z,17.01
2018-05-25T04:25:00.469Z,17.08
2018-05-25T04:27:29.320Z,17.09
2018-05-25T04:29:58.230Z,17.05
2018-05-25T04:32:27.099Z,17.02
2018-05-25T04:34:55.909Z,17.00
2018-05-25T04:37:24.774Z,17.27
2018-05-25T04:39:53.602Z,17.08
2018-05-25T04:42:22.474Z,17.02
2018-05-25T04:44:51.352Z,16.98
2018-05-25T04:47:20.210Z,16.97
2018-05-25T04:49:49.051Z,17.35
2018-05-25T04:52:17.925Z,17.21
2018-05-25T04:54:46.738Z,17.25
2018-05-25T04:57:15.595Z,17.55
2018-05-25T04:59:44.402Z,17.28
2018-05-25T05:02:13.285Z,17.27
2018-05-25T05:04:42.148Z,17.31
2018-05-25T05:07:11.025Z,17.36
2018-05-25T05:09:39.872Z,17.39
2018-05-25T05:12:08.747Z,17.45
2018-05-25T05:14:37.625Z,17.50
2018-05-25T05:17:06.456Z,17.54
2018-05-25T05:19:35.305Z,17.64
2018-05-25T05:22:04.143Z,17.74
2018-05-25T05:24:33.079Z,17.83
2018-05-25T05:27:01.893Z,17.89
2018-05-25T05:29:30.775Z,18.01
2018-05-25T05:31:59.620Z,18.11
2018-05-25T05:34:28.473Z,18.21
2018-05-25T05:36:57.300Z,18.30
2018-05-25T05:39:26.130Z,18.28
2018-05-25T05:41:54.989Z,18.46
2018-05-25T05:44:23.825Z,18.54
2018-05-25T05:46:52.652Z,18.71
2018-05-25T05:49:21.489Z,18.70
2018-05-25T05:51:50.327Z,18.86
2018-05-25T05:54:19.153Z,18.94
2018-05-25T05:56:47.981Z,19.03
2018-05-25T05:59:16.823Z,19.12
2018-05-25T06:01:45.641Z,19.21
2018-05-25T06:04:14.474Z,19.33
2018-05-25T06:06:43.009Z,19.36
2018-05-25T06:09:11.877Z,19.55
2018-05-25T06:11:40.681Z,19.67
2018-05-25T06:14:09.523Z,19.94
2018-05-25T06:16:38.385Z,19.87
2018-05-25T06:19:07.229Z,19.98
2018-05-25T06:21:36.049Z,20.13
2018-05-25T06:24:04.914Z,20.23
2018-05-25T06:26:33.841Z,20.36
2018-05-25T06:29:02.688Z,20.51
2018-05-25T06:31:31.536Z,20.74
2018-05-25T06:34:00.390Z,20.87
2018-05-25T06:36:29.533Z,21.00
2018-05-25T06:38:58.364Z,21.52
2018-05-25T06:41:27.198Z,21.76
2018-05-25T06:43:56.033Z,21.99
2018-05-25T06:46:24.863Z,22.01
2018-05-25T06:48:53.757Z,22.06
2018-05-25T06:51:22.601Z,22.19
2018-05-25T06:53:51.459Z,22.62
2018-05-25T06:56:20.302Z,22.83
2018-05-25T06:58:49.171Z,23.34
2018-05-25T07:01:23.884Z,24.88
2018-05-25T07:03:52.757Z,26.19
2018-05-25T07:06:22.744Z,27.66
2018-05-25T07:08:51.627Z,28.60
2018-05-25T07:11:20.617Z,29.26
2018-05-25T07:13:49.503Z,29.54
2018-05-25T07:16:18.454Z,29.99
2018-05-25T07:18:47.699Z,30.43
2018-05-25T07:21:16.589Z,30.99
2018-05-25T07:23:45.470Z,31.38
2018-05-25T07:26:14.459Z,31.30
2018-05-25T07:28:43.329Z,31.24
2018-05-25T07:31:12.662Z,31.98
2018-05-25T07:33:41.699Z,32.67
2018-05-25T07:36:10.549Z,32.66
2018-05-25T07:38:39.456Z,33.20
2018-05-25T07:41:08.367Z,33.18
2018-05-25T07:43:37.357Z,33.90
2018-05-25T07:46:06.317Z,33.86
2018-05-25T07:48:35.392Z,33.93
2018-05-25T07:51:04.310Z,33.85
2018-05-25T07:53:33.503Z,33.37
2018-05-25T07:56:02.583Z,33.16
2018-05-25T07:58:31.678Z,32.17
2018-05-25T08:01:00.723Z,31.39
2018-05-25T08:03:29.756Z,30.65
2018-05-25T08:05:58.606Z,29.57
2018-05-25T08:08:27.872Z,30.60
2018-05-25T08:10:56.904Z,31.57
2018-05-25T08:13:26.611Z,32.37
2018-05-25T08:15:55.742Z,33.03
2018-05-25T08:18:24.923Z,32.54
2018-05-25T08:20:53.791Z,32.26
2018-05-25T08:23:22.720Z,32.07
2018-05-25T08:25:51.606Z,32.55
2018-05-25T08:28:20.482Z,31.88
2018-05-25T08:30:49.380Z,31.64
2018-05-25T08:33:21.637Z,32.05
2018-05-25T08:35:50.669Z,30.66
2018-05-25T08:38:19.799Z,29.93
2018-05-25T08:40:48.916Z,29.32
2018-05-25T08:43:18.164Z,29.89
2018-05-25T08:45:46.985Z,30.44
2018-05-25T08:48:16.065Z,29.74
2018-05-25T08:50:45.031Z,29.13
2018-05-25T08:53:13.962Z,30.46
2018-05-25T08:55:42.837Z,31.70
2018-05-25T08:58:11.865Z,31.33
2018-05-25T09:00:40.747Z,31.58
2018-05-25T09:03:09.731Z,31.98
2018-05-25T09:05:38.746Z,33.55
2018-05-25T09:08:07.624Z,33.48
2018-05-25T09:10:36.514Z,34.05
2018-05-25T09:13:05.619Z,34.26
2018-05-25T09:15:34.779Z,34.44
2018-05-25T09:18:03.792Z,34.40
2018-05-25T09:20:33.117Z,34.66
2018-05-25T09:23:02.161Z,34.73
2018-05-25T09:25:31.247Z,34.07
2018-05-25T09:28:00.368Z,34.06
2018-05-25T09:30:29.722Z,34.23
2018-05-25T09:32:58.613Z,35.57
2018-05-25T09:35:27.667Z,34.87
2018-05-25T09:37:56.634Z,34.41
2018-05-25T09:40:25.767Z,34.61
2018-05-25T09:42:54.834Z,34.39
2018-05-25T09:45:23.658Z,32.35
2018-05-25T09:47:52.485Z,32.50
2018-05-25T09:50:21.535Z,32.97
2018-05-25T09:52:51.200Z,32.38
2018-05-25T09:55:20.227Z,31.84
2018-05-25T09:57:55.587Z,31.45
2018-05-25T10:00:25.699Z,31.11
2018-05-25T10:02:54.560Z,30.67
2018-05-25T10:05:23.517Z,30.90
2018-05-25T10:07:52.460Z,30.25
2018-05-25T10:10:21.584Z,30.56
2018-05-25T10:12:50.561Z,30.68
2018-05-25T10:15:19.553Z,30.30
2018-05-25T10:17:48.489Z,30.35
2018-05-25T10:20:17.421Z,29.32
2018-05-25T10:22:46.235Z,29.34
2018-05-25T10:25:15.188Z,29.24
2018-05-25T10:27:44.122Z,29.21
2018-05-25T10:30:13.101Z,28.92
2018-05-25T10:32:42.090Z,28.60
2018-05-25T10:35:11.039Z,28.25
2018-05-25T10:37:39.929Z,28.16
2018-05-25T10:40:09.020Z,28.10
2018-05-25T10:42:37.978Z,27.86
2018-05-25T10:45:07.055Z,27.91
2018-05-25T10:47:35.989Z,27.90
2018-05-25T10:50:04.868Z,28.18
2018-05-25T10:52:34.858Z,27.94
2018-05-25T10:55:03.969Z,28.22
2018-05-25T10:57:32.866Z,28.62
2018-05-25T11:00:01.714Z,28.92
2018-05-25T11:02:30.630Z,28.90
2018-05-25T11:04:59.512Z,29.33
2018-05-25T11:07:28.334Z,30.23
2018-05-25T11:09:57.303Z,30.81
2018-05-25T11:12:26.199Z,31.03
2018-05-25T11:14:55.048Z,31.00
2018-05-25T11:17:23.973Z,31.31
2018-05-25T11:19:52.875Z,31.09
2018-05-25T11:22:21.866Z,31.45
2018-05-25T11:24:50.750Z,31.24
2018-05-25T11:27:19.590Z,31.73
2018-05-25T11:29:48.433Z,32.10
2018-05-25T11:32:17.313Z,32.24
2018-05-25T11:34:46.149Z,32.13
2018-05-25T11:37:15.001Z,33.18
2018-05-25T11:39:43.850Z,32.24
2018-05-25T11:42:12.683Z,31.67
2018-05-25T11:44:41.671Z,31.42
2018-05-25T11:47:10.658Z,31.23
2018-05-25T11:49:39.722Z,31.44
2018-05-25T11:52:08.679Z,31.88
2018-05-25T11:54:37.637Z,31.50
2018-05-25T11:57:06.557Z,31.37
2018-05-25T11:59:35.953Z,30.81
2018-05-25T12:02:05.030Z,30.52
2018-05-25T12:04:34.097Z,30.01
2018-05-25T12:07:02.961Z,29.33
2018-05-25T12:09:31.889Z,29.04
2018-05-25T12:12:00.798Z,28.77
2018-05-25T12:14:29.678Z,28.67
2018-05-25T12:16:58.573Z,28.24
2018-05-25T12:19:27.438Z,28.31
2018-05-25T12:21:56.446Z,28.24
2018-05-25T12:24:25.271Z,28.03
2018-05-25T12:26:54.934Z,28.18
2018-05-25T12:29:23.763Z,28.20
2018-05-25T12:31:52.632Z,28.05
2018-05-25T12:34:21.545Z,27.97
2018-05-25T12:36:50.434Z,28.08
2018-05-25T12:39:19.303Z,28.31
2018-05-25T12:41:48.200Z,28.56
2018-05-25T12:44:17.199Z,29.02
2018-05-25T12:46:46.102Z,29.56
2018-05-25T12:49:18.194Z,29.84
2018-05-25T12:51:47.145Z,29.98
2018-05-25T12:54:16.053Z,30.18
2018-05-25T12:56:44.884Z,30.22
2018-05-25T12:59:13.719Z,30.42
2018-05-25T13:01:42.572Z,30.00
2018-05-25T13:04:11.416Z,30.30
2018-05-25T13:06:40.295Z,30.15
2018-05-25T13:09:09.416Z,30.34
2018-05-25T13:11:38.359Z,30.24
2018-05-25T13:14:07.350Z,30.06
2018-05-25T13:16:36.216Z,30.10
2018-05-25T13:19:05.086Z,29.78
2018-05-25T13:21:33.940Z,29.55
2018-05-25T13:24:02.797Z,29.34
2018-05-25T13:26:31.783Z,29.50
2018-05-25T13:29:00.694Z,29.47
2018-05-25T13:31:29.503Z,29.39
2018-05-25T13:33:59.622Z,29.63
2018-05-25T13:36:28.503Z,29.66
2018-05-25T13:38:57.662Z,29.68
2018-05-25T13:41:26.668Z,29.63
2018-05-25T13:43:55.649Z,29.43
2018-05-25T13:46:24.515Z,29.42
2018-05-25T13:48:53.472Z,29.33
2018-05-25T13:51:22.337Z,28.89
2018-05-25T13:53:51.207Z,28.89
2018-05-25T13:56:23.190Z,28.74
2018-05-25T13:58:52.063Z,28.63
2018-05-25T14:01:20.896Z,28.77
2018-05-25T14:03:49.766Z,28.89
2018-05-25T14:06:18.613Z,28.96
2018-05-25T14:08:47.444Z,29.00
2018-05-25T14:11:16.259Z,28.68
2018-05-25T14:13:45.112Z,28.75
2018-05-25T14:16:13.966Z,29.03
2018-05-25T14:18:42.856Z,28.76
2018-05-25T14:21:11.700Z,28.81
2018-05-25T14:23:40.550Z,28.84
2018-05-25T14:26:09.417Z,28.80
2018-05-25T14:28:38.251Z,28.69
2018-05-25T14:31:07.107Z,28.53
2018-05-25T14:33:35.934Z,28.36
2018-05-25T14:36:04.808Z,28.32
2018-05-25T14:38:33.633Z,28.31
2018-05-25T14:41:02.810Z,28.34
2018-05-25T14:43:31.788Z,28.39
2018-05-25T14:46:00.721Z,28.43
2018-05-25T14:48:29.597Z,28.32
2018-05-25T14:50:58.651Z,28.01
2018-05-25T14:53:27.654Z,28.01
2018-05-25T14:55:56.598Z,27.97
2018-05-25T14:58:25.461Z,27.94
2018-05-25T15:00:54.288Z,28.14
2018-05-25T15:03:29.626Z,28.11
2018-05-25T15:05:58.464Z,28.10
2018-05-25T15:08:27.321Z,27.89
2018-05-25T15:10:56.154Z,27.86
2018-05-25T15:13:24.981Z,27.78
2018-05-25T15:15:53.862Z,27.75
2018-05-25T15:18:22.698Z,27.88
2018-05-25T15:20:51.582Z,27.71
2018-05-25T15:23:20.419Z,27.63
2018-05-25T15:25:49.458Z,27.63
2018-05-25T15:28:18.292Z,27.28
2018-05-25T15:30:47.184Z,27.46
2018-05-25T15:33:16.003Z,27.54
2018-05-25T15:35:44.807Z,27.70
2018-05-25T15:38:13.728Z,27.64
2018-05-25T15:40:42.576Z,27.62
2018-05-25T15:43:11.427Z,27.67
2018-05-25T15:45:40.278Z,27.95
2018-05-25T15:49:03.981Z,27.86
2018-05-25T15:51:32.812Z,27.81
2018-05-25T15:54:01.676Z,27.91
2018-05-25T15:56:30.518Z,28.01
2018-05-25T15:58:59.436Z,27.98
2018-05-25T16:01:28.221Z,28.02
2018-05-25T16:03:57.078Z,27.95
2018-05-25T16:06:25.937Z,27.84
2018-05-25T16:08:54.763Z,27.66
2018-05-25T16:11:23.617Z,27.61
2018-05-25T16:13:52.462Z,27.55
2018-05-25T16:16:21.322Z,27.46
2018-05-25T16:18:50.141Z,27.32
2018-05-25T16:21:19.015Z,27.44
2018-05-25T16:23:47.829Z,27.43
2018-05-25T16:26:17.053Z,27.33
2018-05-25T16:28:45.911Z,27.45
2018-05-25T16:31:14.731Z,27.50
2018-05-25T16:33:43.621Z,27.61
2018-05-25T16:36:12.463Z,27.63
2018-05-25T16:38:41.302Z,27.49
2018-05-25T16:41:10.155Z,27.50
2018-05-25T16:43:39.008Z,27.53
2018-05-25T16:46:07.904Z,27.51
2018-05-25T16:48:36.675Z,27.39
2018-05-25T16:51:05.697Z,27.38
2018-05-25T16:53:34.518Z,27.41
2018-05-25T16:56:03.413Z,27.32
2018-05-25T16:58:32.283Z,27.30
2018-05-25T17:01:01.113Z,27.36
2018-05-25T17:03:29.963Z,27.34
2018-05-25T17:05:58.804Z,27.45
2018-05-25T17:08:27.638Z,27.49
2018-05-25T17:10:56.494Z,27.49
2018-05-25T17:13:25.313Z,27.33
2018-05-25T17:15:54.177Z,27.16
2018-05-25T17:18:22.999Z,27.11
2018-05-25T17:20:51.865Z,27.04
2018-05-25T17:23:20.683Z,26.94
2018-05-25T17:25:49.517Z,26.86
2018-05-25T17:28:18.399Z,26.82
2018-05-25T17:30:47.232Z,26.76
2018-05-25T17:33:16.249Z,26.72
2018-05-25T17:35:45.124Z,26.63
2018-05-25T17:38:13.929Z,26.55
2018-05-25T17:40:42.894Z,26.48
2018-05-25T17:43:11.775Z,26.39
2018-05-25T17:45:40.592Z,26.37
2018-05-25T17:48:09.779Z,26.31
2018-05-25T17:50:38.676Z,26.23
2018-05-25T17:53:07.866Z,26.27
2018-05-25T17:55:43.594Z,26.02
2018-05-25T17:58:14.507Z,25.84
2018-05-25T18:00:46.119Z,25.79
2018-05-25T18:03:25.980Z,25.70
2018-05-25T18:06:04.274Z,25.53
2018-05-25T18:08:33.158Z,25.46
2018-05-25T18:11:02.049Z,25.44
2018-05-25T18:13:30.906Z,25.43
2018-05-25T18:15:59.795Z,25.37
2018-05-25T18:18:28.682Z,25.37
2018-05-25T18:20:57.624Z,25.34
2018-05-25T18:23:26.454Z,25.32
2018-05-25T18:25:55.300Z,25.45
2018-05-25T18:28:24.172Z,25.30
2018-05-25T18:30:53.077Z,25.47
2018-05-25T18:33:21.994Z,25.31
2018-05-25T18:35:50.852Z,25.29
2018-05-25T18:38:19.688Z,25.24
2018-05-25T18:40:48.548Z,25.20
2018-05-25T18:43:17.535Z,25.30
2018-05-25T18:45:46.410Z,25.09
2018-05-25T18:48:15.635Z,25.03
2018-05-25T18:50:44.477Z,24.99
2018-05-25T18:53:13.315Z,24.96
2018-05-25T18:55:42.176Z,24.87
2018-05-25T18:58:11.054Z,24.81
2018-05-25T19:00:39.882Z,24.74
2018-05-25T19:03:08.741Z,24.67
2018-05-25T19:05:37.588Z,24.57
2018-05-25T19:08:06.438Z,24.53
2018-05-25T19:10:35.296Z,24.45
2018-05-25T19:13:04.228Z,24.36
2018-05-25T19:15:33.108Z,24.23
2018-05-25T19:18:09.163Z,24.12
2018-05-25T19:20:38.004Z,23.99
2018-05-25T19:23:06.848Z,23.89
2018-05-25T19:25:35.729Z,23.86
2018-05-25T19:28:04.605Z,23.78
2018-05-25T19:30:33.433Z,23.74
2018-05-25T19:33:02.511Z,23.61
2018-05-25T19:35:31.369Z,23.80
2018-05-25T19:38:00.238Z,23.60
2018-05-25T19:40:36.689Z,23.49
2018-05-25T19:43:05.524Z,23.39
2018-05-25T19:45:34.352Z,23.33
2018-05-25T19:48:03.189Z,23.27
2018-05-25T19:50:32.079Z,23.23
2018-05-25T19:53:00.954Z,23.18
2018-05-25T19:55:29.944Z,23.14
2018-05-25T19:57:58.803Z,23.06
2018-05-25T20:00:27.663Z,23.01
2018-05-25T20:02:59.620Z,23.15
2018-05-25T20:05:28.473Z,22.85
2018-05-25T20:07:57.377Z,22.84
2018-05-25T20:10:26.244Z,22.84
2018-05-25T20:12:55.079Z,22.79
2018-05-25T20:15:23.917Z,22.67
2018-05-25T20:17:52.820Z,22.58
2018-05-25T20:20:21.698Z,22.51
2018-05-25T20:22:50.537Z,22.51
2018-05-25T20:25:19.380Z,22.51
2018-05-25T20:27:48.249Z,22.53
2018-05-25T20:30:17.130Z,22.48
2018-05-25T20:32:46.047Z,22.43
2018-05-25T20:35:14.926Z,22.38
2018-05-25T20:37:43.740Z,22.24
2018-05-25T20:40:12.586Z,22.40
2018-05-25T20:42:41.465Z,22.12
2018-05-25T20:45:10.293Z,21.96
2018-05-25T20:47:39.340Z,21.89
2018-05-25T20:50:08.166Z,21.84
2018-05-25T20:52:37.050Z,21.75
2018-05-25T20:55:05.902Z,21.78
2018-05-25T20:57:34.756Z,22.01
2018-05-25T21:00:03.627Z,21.82
2018-05-25T21:02:32.511Z,21.85
2018-05-25T21:05:01.344Z,22.00
2018-05-25T21:07:30.211Z,22.07
2018-05-25T21:09:59.061Z,21.77
2018-05-25T21:12:27.895Z,21.96
2018-05-25T21:14:56.771Z,21.68
2018-05-25T21:17:25.691Z,21.62
2018-05-25T21:19:54.561Z,21.53
2018-05-25T21:22:23.780Z,21.44
2018-05-25T21:24:52.687Z,21.63
2018-05-25T21:27:21.505Z,21.66
2018-05-25T21:29:50.331Z,21.65
2018-05-25T21:32:19.191Z,21.36
2018-05-25T21:34:48.071Z,21.24
2018-05-25T21:37:16.946Z,21.17
2018-05-25T21:39:45.754Z,21.07
2018-05-25T21:42:14.641Z,21.00
2018-05-25T21:44:43.465Z,20.90
2018-05-25T21:47:12.296Z,20.91
2018-05-25T21:49:41.145Z,21.15
2018-05-25T21:52:10.028Z,20.92
2018-05-25T21:54:38.823Z,20.87
2018-05-25T21:57:07.655Z,21.12
2018-05-25T21:59:36.495Z,20.85
2018-05-25T22:02:05.340Z,20.81
2018-05-25T22:04:34.234Z,20.75
2018-05-25T22:07:03.085Z,20.69
2018-05-25T22:09:31.946Z,20.65
2018-05-25T22:12:00.820Z,20.63
2018-05-25T22:14:29.645Z,20.62
2018-05-25T22:16:58.465Z,20.55
2018-05-25T22:19:27.303Z,20.51
2018-05-25T22:21:56.158Z,20.50
2018-05-25T22:24:25.016Z,20.46
2018-05-25T22:26:53.888Z,20.50
2018-05-25T22:29:22.755Z,20.48
2018-05-25T22:31:51.582Z,20.40
2018-05-25T22:34:20.459Z,20.38
2018-05-25T22:36:49.275Z,20.46
2018-05-25T22:39:18.121Z,20.72
2018-05-25T22:41:50.699Z,20.52
2018-05-25T22:44:56.188Z,20.52
2018-05-25T22:48:01.507Z,20.48
2018-05-25T22:51:07.071Z,20.40
2018-05-25T22:54:09.060Z,20.40
2018-05-25T22:56:37.969Z,20.38
2018-05-25T22:59:06.829Z,20.35
2018-05-25T23:01:35.703Z,20.33
2018-05-25T23:04:04.574Z,20.32
2018-05-25T23:06:33.409Z,20.51
2018-05-25T23:09:02.253Z,20.34
2018-05-25T23:11:31.087Z,20.33
2018-05-25T23:13:59.948Z,20.31
2018-05-25T23:16:28.866Z,20.27
2018-05-25T23:18:57.782Z,20.23
2018-05-25T23:21:26.642Z,20.19
2018-05-25T23:23:55.574Z,20.19
2018-05-25T23:26:24.428Z,20.07
2018-05-25T23:28:53.732Z,20.01
2018-05-25T23:31:22.600Z,20.03
2018-05-25T23:33:51.420Z,20.00
2018-05-25T23:36:20.284Z,19.97
2018-05-25T23:38:49.174Z,19.93
2018-05-25T23:41:18.072Z,19.87
2018-05-25T23:43:46.942Z,19.85
2018-05-25T23:46:15.751Z,19.88
2018-05-25T23:48:44.635Z,20.10
2018-05-25T23:51:13.478Z,19.89
2018-05-25T23:53:42.357Z,19.82
2018-05-25T23:56:11.203Z,19.75
2018-05-25T23:58:40.079Z,19.78
